Time;durP1;ratioP1;P1;durP2;ratioP2;P2;SDS_P1;SDS_P2;PMS_P1;PMS_P2;Temp;Humidity;BMP_temperature;BMP_pressure;BME280_temperature;BME280_humidity;BME280_pressure;Samples;Min_cycle;Max_cycle;Signal;HPM_P1;HPM_P2
2021/01/29 00:00:23;;;;;;;6.90;4.30;;;;;;;;;;5067894;28;20060;-78
2021/01/29 00:02:50;;;;;;;8.95;4.00;;;;;;;;;;5064460;28;20020;-76
2021/01/29 00:05:16;;;;;;;8.75;4.65;;;;;;;;;;5067643;28;20032;-77
2021/01/29 00:07:43;;;;;;;6.53;4.15;;;;;;;;;;5052034;28;20104;-77
2021/01/29 00:10:10;;;;;;;10.10;4.47;;;;;;;;;;5069983;28;20158;-77
2021/01/29 00:12:36;;;;;;;6.18;4.30;;;;;;;;;;5061145;28;20021;-77
2021/01/29 00:15:04;;;;;;;7.55;4.60;;;;;;;;;;5061127;28;20029;-77
2021/01/29 00:17:30;;;;;;;7.10;4.32;;;;;;;;;;5068877;28;20051;-77
2021/01/29 00:19:57;;;;;;;6.03;4.25;;;;;;;;;;5056866;28;20476;-77
2021/01/29 00:22:23;;;;;;;10.52;5.10;;;;;;;;;;5066059;28;20116;-77
2021/01/29 00:24:49;;;;;;;8.48;5.20;;;;;;;;;;5046956;28;20481;-77
2021/01/29 00:27:15;;;;;;;9.23;5.10;;;;;;;;;;5059889;28;20031;-78
2021/01/29 00:29:41;;;;;;;7.05;4.53;;;;;;;;;;5055253;28;20104;-78
2021/01/29 00:32:07;;;;;;;7.60;4.90;;;;;;;;;;5067647;28;20108;-78
2021/01/29 00:34:33;;;;;;;7.70;5.00;;;;;;;;;;5059167;28;20463;-78
2021/01/29 00:36:59;;;;;;;8.40;4.88;;;;;;;;;;5068539;28;20380;-78
2021/01/29 00:39:26;;;;;;;9.15;5.30;;;;;;;;;;5056632;28;20438;-78
2021/01/29 00:41:52;;;;;;;10.63;5.20;;;;;;;;;;5059563;28;20032;-78
2021/01/29 00:44:18;;;;;;;8.15;5.45;;;;;;;;;;5064821;28;20029;-78
2021/01/29 00:46:44;;;;;;;9.70;5.28;;;;;;;;;;5048633;28;20090;-78
2021/01/29 00:49:10;;;;;;;10.32;4.90;;;;;;;;;;5062938;28;20040;-77
2021/01/29 00:51:36;;;;;;;7.43;4.82;;;;;;;;;;5056157;28;20112;-79
2021/01/29 00:54:03;;;;;;;8.02;5.28;;;;;;;;;;5067982;28;20024;-77
2021/01/29 00:56:29;;;;;;;9.38;5.15;;;;;;;;;;5060004;28;20078;-78
2021/01/29 00:58:55;;;;;;;9.63;5.68;;;;;;;;;;5052283;28;20035;-78
2021/01/29 01:01:21;;;;;;;8.50;5.07;;;;;;;;;;5059938;28;20039;-77
2021/01/29 01:03:47;;;;;;;10.27;5.63;;;;;;;;;;5055074;28;20036;-78
2021/01/29 01:06:13;;;;;;;9.05;5.35;;;;;;;;;;5056864;28;20025;-78
2021/01/29 01:08:39;;;;;;;7.95;5.43;;;;;;;;;;5064655;28;20018;-77
2021/01/29 01:11:05;;;;;;;7.70;5.57;;;;;;;;;;5063354;28;20055;-77
2021/01/29 01:13:31;;;;;;;8.80;5.95;;;;;;;;;;5057339;28;20036;-77
2021/01/29 01:15:57;;;;;;;8.07;5.57;;;;;;;;;;5059999;28;20028;-77
2021/01/29 01:18:23;;;;;;;8.15;5.88;;;;;;;;;;5065641;28;20021;-78
2021/01/29 01:20:50;;;;;;;7.90;5.57;;;;;;;;;;5062742;28;20028;-77
2021/01/29 01:23:16;;;;;;;7.82;5.57;;;;;;;;;;5058101;28;20028;-77
2021/01/29 01:25:42;;;;;;;6.72;4.90;;;;;;;;;;5057218;28;20010;-77
2021/01/29 01:28:08;;;;;;;10.23;5.65;;;;;;;;;;5067126;28;20503;-77
2021/01/29 01:30:38;;;;;;;9.68;5.82;;;;;;;;;;5060514;28;20481;-77
2021/01/29 01:33:06;;;;;;;8.40;5.40;;;;;;;;;;5051293;28;20073;-77
2021/01/29 01:35:32;;;;;;;13.70;6.03;;;;;;;;;;5063014;28;20034;-77
2021/01/29 01:37:59;;;;;;;9.57;5.60;;;;;;;;;;5068925;28;20021;-78
2021/01/29 01:40:33;;;;;;;9.50;5.50;;;;;;;;;;5059044;28;20032;-77
2021/01/29 01:42:59;;;;;;;6.63;4.80;;;;;;;;;;5061166;28;20083;-78
2021/01/29 01:45:48;;;;;;;8.68;5.45;;;;;;;;;;5067313;28;20036;-78
2021/01/29 01:48:16;;;;;;;10.63;5.22;;;;;;;;;;5041653;28;20040;-77
2021/01/29 01:50:44;;;;;;;7.72;5.70;;;;;;;;;;5060645;28;20062;-78
2021/01/29 01:53:23;;;;;;;8.00;5.55;;;;;;;;;;5059303;28;20031;-78
2021/01/29 01:55:52;;;;;;;10.90;5.72;;;;;;;;;;5068827;28;20027;-78
2021/01/29 01:58:18;;;;;;;10.32;5.32;;;;;;;;;;5056315;28;20017;-77
2021/01/29 02:00:44;;;;;;;9.90;5.63;;;;;;;;;;5063124;28;20027;-77
2021/01/29 02:03:16;;;;;;;7.78;5.03;;;;;;;;;;5064708;28;20013;-78
2021/01/29 02:05:42;;;;;;;8.67;5.30;;;;;;;;;;5055654;28;20040;-77
2021/01/29 02:08:10;;;;;;;6.65;4.75;;;;;;;;;;5042896;28;20304;-77
2021/01/29 02:10:36;;;;;;;7.30;4.72;;;;;;;;;;5063970;28;20104;-77
2021/01/29 02:13:03;;;;;;;6.78;4.80;;;;;;;;;;5063330;28;20056;-77
2021/01/29 02:15:37;;;;;;;8.40;5.15;;;;;;;;;;5056644;28;20048;-77
2021/01/29 02:18:11;;;;;;;7.72;5.43;;;;;;;;;;5068239;28;20044;-77
2021/01/29 02:20:49;;;;;;;7.90;4.90;;;;;;;;;;5059968;28;20090;-77
2021/01/29 02:23:19;;;;;;;8.25;5.03;;;;;;;;;;5054731;28;20029;-78
2021/01/29 02:26:03;;;;;;;7.63;4.85;;;;;;;;;;5065503;28;20103;-78
2021/01/29 02:28:38;;;;;;;10.05;5.25;;;;;;;;;;5064459;28;20096;-78
2021/01/29 02:31:04;;;;;;;7.97;5.45;;;;;;;;;;5062143;28;20458;-77
2021/01/29 02:33:58;;;;;;;7.20;4.95;;;;;;;;;;5056258;28;20096;-78
2021/01/29 02:36:43;;;;;;;7.70;4.88;;;;;;;;;;5045066;28;20387;-77
2021/01/29 02:39:33;;;;;;;7.50;5.40;;;;;;;;;;5058706;28;20032;-77
2021/01/29 02:42:02;;;;;;;6.70;4.82;;;;;;;;;;5043343;28;20043;-77
2021/01/29 02:44:31;;;;;;;6.40;4.50;;;;;;;;;;5064787;28;20064;-77
2021/01/29 02:46:59;;;;;;;6.85;5.00;;;;;;;;;;5062095;28;20040;-77
2021/01/29 02:49:38;;;;;;;6.68;4.78;;;;;;;;;;5055339;28;20021;-77
2021/01/29 02:52:30;;;;;;;7.80;5.30;;;;;;;;;;5054782;28;20020;-78
2021/01/29 02:54:56;;;;;;;8.80;4.85;;;;;;;;;;5044468;28;20044;-77
2021/01/29 02:57:39;;;;;;;6.53;4.45;;;;;;;;;;5056700;28;20026;-77
2021/01/29 03:00:05;;;;;;;6.60;4.50;;;;;;;;;;5036657;28;20029;-78
2021/01/29 03:02:34;;;;;;;9.00;5.15;;;;;;;;;;5062667;28;20113;-77
2021/01/29 03:05:04;;;;;;;9.45;5.20;;;;;;;;;;5060927;28;20025;-77
2021/01/29 03:07:36;;;;;;;7.10;5.07;;;;;;;;;;5054266;28;20016;-77
2021/01/29 03:10:10;;;;;;;9.73;5.47;;;;;;;;;;5066170;28;20035;-78
2021/01/29 03:13:02;;;;;;;7.88;5.63;;;;;;;;;;5058952;28;20032;-78
2021/01/29 03:15:34;;;;;;;8.45;5.53;;;;;;;;;;5041749;28;20520;-77
2021/01/29 03:18:13;;;;;;;8.45;6.05;;;;;;;;;;5065857;28;20025;-78
2021/01/29 03:20:48;;;;;;;7.53;5.28;;;;;;;;;;5059180;28;20108;-78
2021/01/29 03:23:29;;;;;;;6.88;4.78;;;;;;;;;;5056127;28;20032;-78
2021/01/29 03:26:04;;;;;;;8.00;5.18;;;;;;;;;;5065123;28;20056;-77
2021/01/29 03:28:34;;;;;;;7.32;5.07;;;;;;;;;;5056424;28;20025;-78
2021/01/29 03:31:02;;;;;;;7.78;5.57;;;;;;;;;;5058587;28;20025;-77
2021/01/29 03:33:30;;;;;;;7.95;5.53;;;;;;;;;;5064297;28;20013;-78
2021/01/29 03:36:01;;;;;;;8.10;5.25;;;;;;;;;;5054209;28;20029;-77
2021/01/29 03:38:36;;;;;;;13.95;5.20;;;;;;;;;;5062760;28;20490;-77
2021/01/29 03:41:08;;;;;;;6.45;5.10;;;;;;;;;;5062234;28;20036;-77
2021/01/29 03:43:47;;;;;;;6.97;4.75;;;;;;;;;;5054838;28;20388;-77
2021/01/29 03:46:13;;;;;;;6.88;4.80;;;;;;;;;;5038796;28;20162;-77
2021/01/29 03:48:43;;;;;;;8.02;5.50;;;;;;;;;;5056325;28;20041;-77
2021/01/29 03:51:14;;;;;;;7.47;5.30;;;;;;;;;;5055408;28;20032;-77
2021/01/29 03:53:43;;;;;;;7.50;4.97;;;;;;;;;;5052601;28;20021;-77
2021/01/29 03:56:20;;;;;;;8.77;5.70;;;;;;;;;;5067516;28;20021;-77
2021/01/29 03:58:58;;;;;;;8.15;5.07;;;;;;;;;;5061369;28;20021;-78
2021/01/29 04:01:33;;;;;;;7.80;5.47;;;;;;;;;;5064887;28;20043;-77
2021/01/29 04:03:59;;;;;;;7.25;4.93;;;;;;;;;;5052719;28;20021;-77
2021/01/29 04:06:26;;;;;;;9.02;5.15;;;;;;;;;;5059278;28;20017;-77
2021/01/29 04:09:13;;;;;;;7.25;5.05;;;;;;;;;;5060330;28;20036;-77
2021/01/29 04:11:50;;;;;;;7.53;4.93;;;;;;;;;;5069095;28;20021;-77
2021/01/29 04:14:23;;;;;;;8.23;5.40;;;;;;;;;;5059460;28;20028;-77
2021/01/29 04:16:50;;;;;;;7.25;4.80;;;;;;;;;;5063135;28;20025;-77
2021/01/29 04:19:20;;;;;;;9.45;4.85;;;;;;;;;;5066919;28;20551;-77
2021/01/29 04:21:49;;;;;;;7.47;5.13;;;;;;;;;;5055394;28;20471;-78
2021/01/29 04:24:20;;;;;;;7.95;5.05;;;;;;;;;;5044934;28;20013;-77
2021/01/29 04:26:52;;;;;;;8.68;4.82;;;;;;;;;;5071733;28;20495;-77
2021/01/29 04:29:39;;;;;;;7.13;4.55;;;;;;;;;;5058194;28;20040;-77
2021/01/29 04:32:07;;;;;;;7.32;4.97;;;;;;;;;;5018796;28;20504;-78
2021/01/29 04:34:35;;;;;;;6.90;5.10;;;;;;;;;;5062640;28;20166;-77
2021/01/29 04:37:03;;;;;;;7.93;5.35;;;;;;;;;;5045781;28;20076;-77
2021/01/29 04:39:32;;;;;;;10.20;5.75;;;;;;;;;;5049321;28;20091;-77
2021/01/29 04:42:16;;;;;;;8.40;4.90;;;;;;;;;;5054422;28;20037;-77
2021/01/29 04:44:45;;;;;;;10.93;6.60;;;;;;;;;;5061294;28;20097;-77
2021/01/29 04:47:15;;;;;;;8.95;5.93;;;;;;;;;;5059112;28;20183;-77
2021/01/29 04:49:56;;;;;;;8.40;5.43;;;;;;;;;;5070073;28;20046;-77
2021/01/29 04:52:38;;;;;;;7.22;5.43;;;;;;;;;;5055426;28;20056;-77
2021/01/29 04:55:19;;;;;;;9.68;5.20;;;;;;;;;;5065107;28;20020;-77
2021/01/29 04:57:53;;;;;;;11.57;5.80;;;;;;;;;;5041393;28;20390;-76
2021/01/29 05:00:25;;;;;;;9.85;5.47;;;;;;;;;;5066330;28;20056;-77
2021/01/29 05:03:10;;;;;;;8.52;5.85;;;;;;;;;;5063514;28;20075;-77
2021/01/29 05:05:54;;;;;;;10.15;6.10;;;;;;;;;;5057160;28;20724;-77
2021/01/29 05:08:39;;;;;;;8.57;5.20;;;;;;;;;;5044748;28;20013;-77
2021/01/29 05:11:05;;;;;;;12.63;5.55;;;;;;;;;;5059701;28;20025;-77
2021/01/29 05:14:07;;;;;;;8.82;5.40;;;;;;;;;;5057484;28;20022;-77
2021/01/29 05:16:52;;;;;;;10.93;5.30;;;;;;;;;;5037841;28;20071;-76
2021/01/29 05:19:29;;;;;;;9.55;5.25;;;;;;;;;;5055375;28;20111;-77
2021/01/29 05:22:14;;;;;;;8.00;5.68;;;;;;;;;;5068394;28;20025;-76
2021/01/29 05:24:43;;;;;;;8.00;5.47;;;;;;;;;;5061289;28;20016;-76
2021/01/29 05:27:09;;;;;;;7.35;5.00;;;;;;;;;;5070653;28;20024;-77
2021/01/29 05:29:39;;;;;;;8.55;5.60;;;;;;;;;;5055348;28;20019;-76
2021/01/29 05:32:08;;;;;;;7.65;4.85;;;;;;;;;;5053853;28;20016;-77
2021/01/29 05:34:37;;;;;;;8.02;5.20;;;;;;;;;;5061809;28;20430;-77
2021/01/29 05:37:19;;;;;;;8.80;5.43;;;;;;;;;;5054242;28;20040;-78
2021/01/29 05:39:52;;;;;;;7.10;5.03;;;;;;;;;;5055832;28;20086;-78
2021/01/29 05:42:33;;;;;;;10.00;5.00;;;;;;;;;;5067051;28;20021;-78
2021/01/29 05:45:05;;;;;;;11.98;5.65;;;;;;;;;;5049221;28;20052;-81
2021/01/29 05:47:31;;;;;;;16.05;5.30;;;;;;;;;;5050261;28;20060;-77
2021/01/29 05:50:22;;;;;;;17.85;6.05;;;;;;;;;;5032469;28;20025;-77
2021/01/29 05:53:07;;;;;;;17.73;6.13;;;;;;;;;;5048773;28;20021;-77
2021/01/29 05:55:39;;;;;;;15.70;5.95;;;;;;;;;;5051426;28;20025;-78
2021/01/29 05:58:20;;;;;;;23.90;6.60;;;;;;;;;;5051279;28;20503;-76
2021/01/29 06:00:55;;;;;;;19.55;5.97;;;;;;;;;;5054869;28;20083;-77
2021/01/29 06:03:21;;;;;;;20.60;6.35;;;;;;;;;;5062846;28;20108;-77
2021/01/29 06:06:14;;;;;;;21.05;5.55;;;;;;;;;;5052967;28;20100;-78
2021/01/29 06:08:50;;;;;;;17.00;5.78;;;;;;;;;;5052240;28;20494;-81
2021/01/29 06:11:35;;;;;;;21.42;6.63;;;;;;;;;;5052365;28;20053;-81
2021/01/29 06:14:21;;;;;;;26.83;5.65;;;;;;;;;;5050584;28;20032;-76
2021/01/29 06:17:10;;;;;;;20.58;6.45;;;;;;;;;;5051177;28;20055;-74
2021/01/29 06:19:54;;;;;;;16.70;5.40;;;;;;;;;;5047382;28;20101;-74
2021/01/29 06:22:41;;;;;;;14.10;5.43;;;;;;;;;;5065773;28;20108;-75
2021/01/29 06:25:13;;;;;;;12.02;6.20;;;;;;;;;;5055639;28;20040;-75
2021/01/29 06:28:03;;;;;;;17.23;7.13;;;;;;;;;;5039869;28;20502;-76
2021/01/29 06:30:45;;;;;;;20.60;8.48;;;;;;;;;;5069257;28;20028;-73
2021/01/29 06:33:16;;;;;;;16.08;8.63;;;;;;;;;;5054442;28;20033;-73
2021/01/29 06:35:48;;;;;;;13.87;8.37;;;;;;;;;;5064992;28;20471;-72
2021/01/29 06:38:19;;;;;;;15.98;7.32;;;;;;;;;;5060449;28;20033;-72
2021/01/29 06:40:58;;;;;;;11.57;7.22;;;;;;;;;;5056160;28;20445;-72
2021/01/29 06:43:27;;;;;;;12.18;7.15;;;;;;;;;;5054957;28;20017;-74
2021/01/29 06:46:05;;;;;;;11.02;6.43;;;;;;;;;;5065547;28;20025;-72
2021/01/29 06:48:50;;;;;;;11.43;6.25;;;;;;;;;;5061433;28;20037;-74
2021/01/29 06:51:19;;;;;;;12.38;6.68;;;;;;;;;;5054784;28;20103;-72
2021/01/29 06:53:52;;;;;;;13.25;6.55;;;;;;;;;;5066688;28;20023;-72
2021/01/29 06:56:50;;;;;;;9.10;5.60;;;;;;;;;;5058999;28;20025;-72
2021/01/29 06:59:25;;;;;;;13.30;5.68;;;;;;;;;;5031462;28;20037;-72
2021/01/29 07:02:07;;;;;;;12.07;6.28;;;;;;;;;;5064218;28;20495;-74
2021/01/29 07:04:36;;;;;;;24.92;6.30;;;;;;;;;;5051819;28;20103;-72
2021/01/29 07:07:08;;;;;;;16.80;7.25;;;;;;;;;;5065946;28;20016;-73
2021/01/29 07:09:53;;;;;;;14.15;6.72;;;;;;;;;;5052749;28;20446;-73
2021/01/29 07:12:26;;;;;;;15.77;5.88;;;;;;;;;;5063367;28;20075;-76
2021/01/29 07:14:54;;;;;;;;;;;;;;;;;;5058260;28;20024;-70
2021/01/29 07:17:20;;;;;;;14.65;5.55;;;;;;;;;;5053243;28;20264;-73
2021/01/29 07:19:49;;;;;;;11.48;5.75;;;;;;;;;;5064668;28;20035;-72
2021/01/29 07:22:28;;;;;;;10.35;6.05;;;;;;;;;;5059757;28;20024;-73
2021/01/29 07:25:00;;;;;;;12.88;6.60;;;;;;;;;;5055393;28;20033;-72
2021/01/29 07:27:35;;;;;;;12.70;6.68;;;;;;;;;;5067010;28;20095;-72
2021/01/29 07:30:13;;;;;;;11.80;6.05;;;;;;;;;;5056386;28;20025;-72
2021/01/29 07:32:45;;;;;;;11.15;6.40;;;;;;;;;;5057000;28;20037;-74
2021/01/29 07:35:11;;;;;;;9.48;5.95;;;;;;;;;;5066011;28;20530;-73
2021/01/29 07:37:56;;;;;;;10.80;6.43;;;;;;;;;;5054375;28;20138;-73
2021/01/29 07:40:37;;;;;;;12.95;6.05;;;;;;;;;;5060770;28;20069;-73
2021/01/29 07:43:11;;;;;;;10.57;5.90;;;;;;;;;;5066226;28;20074;-73
2021/01/29 07:45:43;;;;;;;13.93;6.13;;;;;;;;;;5039640;28;20020;-74
2021/01/29 07:48:15;;;;;;;12.00;5.53;;;;;;;;;;5052582;28;20287;-72
2021/01/29 07:50:44;;;;;;;9.75;5.38;;;;;;;;;;5061757;28;20083;-73
2021/01/29 07:53:21;;;;;;;11.15;5.50;;;;;;;;;;5071006;28;20044;-73
2021/01/29 07:56:05;;;;;;;10.00;5.55;;;;;;;;;;5034615;28;20418;-73
2021/01/29 07:58:47;;;;;;;13.82;5.47;;;;;;;;;;5060071;28;20055;-73
2021/01/29 08:01:16;;;;;;;8.80;5.50;;;;;;;;;;5055914;28;20037;-73
2021/01/29 08:04:01;;;;;;;7.80;4.85;;;;;;;;;;5070304;28;20017;-74
2021/01/29 08:06:36;;;;;;;10.27;5.25;;;;;;;;;;5063420;28;20025;-73
2021/01/29 08:09:05;;;;;;;10.52;5.07;;;;;;;;;;5069242;28;20028;-73
2021/01/29 08:11:33;;;;;;;8.18;4.93;;;;;;;;;;5057456;28;20113;-73
2021/01/29 08:14:04;;;;;;;7.72;4.47;;;;;;;;;;5067437;28;20492;-73
2021/01/29 08:16:36;;;;;;;9.32;4.63;;;;;;;;;;5064939;28;20017;-73
2021/01/29 08:19:11;;;;;;;7.72;4.07;;;;;;;;;;5057333;28;20025;-73
2021/01/29 08:21:49;;;;;;;8.48;4.80;;;;;;;;;;5041718;28;20021;-74
2021/01/29 08:24:24;;;;;;;9.20;4.40;;;;;;;;;;5065065;28;20098;-73
2021/01/29 08:27:00;;;;;;;8.65;4.20;;;;;;;;;;5066402;28;20027;-73
2021/01/29 08:29:45;;;;;;;9.00;4.30;;;;;;;;;;5057104;28;20028;-74
2021/01/29 08:32:26;;;;;;;7.18;4.47;;;;;;;;;;5073632;28;20028;-73
2021/01/29 08:35:11;;;;;;;6.40;4.18;;;;;;;;;;5058431;28;20031;-73
2021/01/29 08:37:56;;;;;;;8.82;4.78;;;;;;;;;;5041440;28;20130;-74
2021/01/29 08:40:22;;;;;;;7.80;4.32;;;;;;;;;;5063721;28;20120;-73
2021/01/29 08:42:48;;;;;;;6.75;4.47;;;;;;;;;;5065715;28;20031;-73
2021/01/29 08:45:32;;;;;;;6.28;4.45;;;;;;;;;;5056737;28;20029;-73
2021/01/29 08:48:17;;;;;;;8.00;4.45;;;;;;;;;;5066771;28;20052;-73
2021/01/29 08:50:46;;;;;;;7.20;4.43;;;;;;;;;;5065006;28;20392;-73
2021/01/29 08:53:12;;;;;;;8.55;4.15;;;;;;;;;;5056674;28;20448;-73
2021/01/29 08:55:57;;;;;;;7.30;4.30;;;;;;;;;;5052873;28;20028;-73
2021/01/29 08:58:32;;;;;;;7.43;4.28;;;;;;;;;;5064597;28;20033;-73
2021/01/29 09:01:01;;;;;;;6.45;4.10;;;;;;;;;;5057306;28;20063;-73
2021/01/29 09:03:32;;;;;;;6.93;4.18;;;;;;;;;;5069412;28;20379;-73
2021/01/29 09:06:10;;;;;;;7.93;4.22;;;;;;;;;;5059517;28;20020;-73
2021/01/29 09:08:36;;;;;;;6.32;3.85;;;;;;;;;;5060037;28;20110;-73
2021/01/29 09:11:10;;;;;;;7.53;3.92;;;;;;;;;;5067101;28;20020;-72
2021/01/29 09:13:39;;;;;;;5.90;3.70;;;;;;;;;;5069534;28;20568;-73
2021/01/29 09:16:20;;;;;;;7.45;4.28;;;;;;;;;;5060450;28;20356;-73
2021/01/29 09:18:56;;;;;;;5.88;3.78;;;;;;;;;;5059788;28;20017;-73
2021/01/29 09:21:28;;;;;;;5.97;3.63;;;;;;;;;;5068741;28;20066;-72
2021/01/29 09:24:09;;;;;;;7.30;4.60;;;;;;;;;;5058586;28;20025;-74
2021/01/29 09:27:10;;;;;;;6.47;3.95;;;;;;;;;;5060838;28;20028;-73
2021/01/29 09:29:38;;;;;;;6.28;4.03;;;;;;;;;;5045169;28;20021;-73
2021/01/29 09:32:06;;;;;;;6.88;3.92;;;;;;;;;;5065597;28;20043;-74
2021/01/29 09:34:52;;;;;;;9.23;4.18;;;;;;;;;;5063670;28;20036;-74
2021/01/29 09:37:24;;;;;;;6.35;3.75;;;;;;;;;;5054316;28;20021;-73
2021/01/29 09:39:53;;;;;;;5.95;3.63;;;;;;;;;;5067036;28;20032;-73
2021/01/29 09:42:24;;;;;;;7.00;3.75;;;;;;;;;;5060544;28;20021;-73
2021/01/29 09:44:57;;;;;;;5.80;3.50;;;;;;;;;;5057284;28;20021;-74
2021/01/29 09:47:23;;;;;;;;;;;;;;;;;;5067985;28;20051;-73
2021/01/29 09:49:50;;;;;;;6.00;3.63;;;;;;;;;;5056080;28;19904;-74
2021/01/29 09:52:34;;;;;;;7.60;4.05;;;;;;;;;;5063232;28;20163;-73
2021/01/29 09:55:11;;;;;;;6.18;3.60;;;;;;;;;;5065527;28;20024;-73
2021/01/29 09:58:00;;;;;;;9.25;3.47;;;;;;;;;;5039603;28;20021;-74
2021/01/29 10:00:37;;;;;;;10.85;4.40;;;;;;;;;;5061346;28;20055;-74
2021/01/29 10:03:03;;;;;;;30.08;4.30;;;;;;;;;;5046516;28;20017;-74
2021/01/29 10:05:38;;;;;;;15.15;4.13;;;;;;;;;;5065994;28;20021;-76
2021/01/29 10:08:12;;;;;;;11.45;4.13;;;;;;;;;;5057151;28;20028;-74
2021/01/29 10:10:49;;;;;;;11.38;4.45;;;;;;;;;;5059869;28;20025;-73
2021/01/29 10:13:34;;;;;;;10.95;4.07;;;;;;;;;;5066493;28;20082;-72
2021/01/29 10:16:23;;;;;;;11.95;3.75;;;;;;;;;;5058364;28;20418;-72
2021/01/29 10:18:56;;;;;;;8.45;3.70;;;;;;;;;;5028744;28;20503;-72
2021/01/29 10:21:27;;;;;;;13.55;3.90;;;;;;;;;;5067091;28;20044;-72
2021/01/29 10:23:57;;;;;;;11.85;3.22;;;;;;;;;;5056046;28;20036;-73
2021/01/29 10:26:29;;;;;;;10.75;4.03;;;;;;;;;;5060256;28;20120;-75
2021/01/29 10:29:03;;;;;;;9.63;3.63;;;;;;;;;;5066004;28;20378;-76
2021/01/29 10:31:37;;;;;;;11.10;3.38;;;;;;;;;;5053320;28;20027;-76
2021/01/29 10:34:16;;;;;;;6.22;2.90;;;;;;;;;;5062875;28;20523;-79
2021/01/29 10:36:42;;;;;;;8.68;3.92;;;;;;;;;;5051746;28;20029;-80
2021/01/29 10:39:20;;;;;;;6.15;3.25;;;;;;;;;;5062897;28;20438;-79
2021/01/29 10:41:57;;;;;;;5.55;3.50;;;;;;;;;;5041344;28;20391;-75
2021/01/29 10:44:25;;;;;;;7.63;3.72;;;;;;;;;;5061087;28;20028;-76
2021/01/29 10:47:00;;;;;;;8.20;3.45;;;;;;;;;;5063737;28;20064;-76
2021/01/29 10:49:44;;;;;;;7.28;3.97;;;;;;;;;;5054266;28;20092;-78
2021/01/29 10:52:22;;;;;;;10.73;3.58;;;;;;;;;;5062755;28;20056;-75
2021/01/29 10:54:49;;;;;;;6.25;3.15;;;;;;;;;;5062783;28;20024;-72
2021/01/29 10:57:18;;;;;;;7.93;3.53;;;;;;;;;;5050359;28;20024;-74
2021/01/29 10:59:44;;;;;;;8.88;3.50;;;;;;;;;;5066424;28;20017;-78
2021/01/29 11:02:13;;;;;;;6.78;3.55;;;;;;;;;;5059211;28;20024;-76
2021/01/29 11:04:47;;;;;;;6.65;3.40;;;;;;;;;;5058883;28;20048;-79
2021/01/29 11:07:21;;;;;;;6.47;3.47;;;;;;;;;;5067164;28;20527;-75
2021/01/29 11:09:53;;;;;;;6.45;3.80;;;;;;;;;;5055737;28;20024;-77
2021/01/29 11:12:19;;;;;;;10.98;3.90;;;;;;;;;;5053427;28;20021;-77
2021/01/29 11:14:56;;;;;;;5.82;3.22;;;;;;;;;;5057585;28;20456;-78
2021/01/29 11:17:23;;;;;;;9.65;3.67;;;;;;;;;;5066925;28;20021;-77
2021/01/29 11:19:51;;;;;;;8.77;3.67;;;;;;;;;;5055034;28;20024;-72
2021/01/29 11:22:36;;;;;;;5.18;3.22;;;;;;;;;;5069535;28;20059;-76
2021/01/29 11:25:26;;;;;;;7.32;3.90;;;;;;;;;;5054248;28;20040;-76
2021/01/29 11:28:09;;;;;;;7.40;3.97;;;;;;;;;;5042957;28;20405;-79
2021/01/29 11:30:35;;;;;;;7.07;4.75;;;;;;;;;;5057776;28;20037;-80
2021/01/29 11:33:06;;;;;;;8.57;6.13;;;;;;;;;;5066067;28;20108;-73
2021/01/29 11:35:37;;;;;;;9.32;6.35;;;;;;;;;;5051537;28;20063;-76
2021/01/29 11:38:03;;;;;;;11.50;5.65;;;;;;;;;;5054976;28;20027;-72
2021/01/29 11:40:29;;;;;;;9.18;6.20;;;;;;;;;;5058688;28;20032;-72
2021/01/29 11:43:08;;;;;;;7.60;4.63;;;;;;;;;;5065089;28;20054;-72
2021/01/29 11:45:44;;;;;;;7.82;4.28;;;;;;;;;;5043981;28;20024;-73
2021/01/29 11:48:15;;;;;;;8.52;3.92;;;;;;;;;;5062158;28;20047;-77
2021/01/29 11:50:45;;;;;;;7.90;4.35;;;;;;;;;;5062644;28;20024;-76
2021/01/29 11:53:18;;;;;;;7.40;4.55;;;;;;;;;;5053616;28;20025;-73
2021/01/29 11:55:44;;;;;;;8.02;4.00;;;;;;;;;;5034047;28;20008;-77
2021/01/29 11:58:16;;;;;;;9.50;4.45;;;;;;;;;;5048524;28;20047;-75
2021/01/29 12:00:58;;;;;;;6.68;4.18;;;;;;;;;;5057584;28;20065;-77
2021/01/29 12:03:32;;;;;;;12.93;4.22;;;;;;;;;;5065658;28;20103;-73
2021/01/29 12:06:19;;;;;;;7.63;4.45;;;;;;;;;;5057224;28;20023;-74
2021/01/29 12:08:55;;;;;;;6.78;4.20;;;;;;;;;;5050197;28;20120;-74
2021/01/29 12:11:27;;;;;;;9.73;4.57;;;;;;;;;;5065066;28;20093;-75
2021/01/29 12:14:09;;;;;;;7.80;4.30;;;;;;;;;;5055311;28;20501;-75
2021/01/29 12:16:35;;;;;;;8.15;4.65;;;;;;;;;;5058788;28;20040;-75
2021/01/29 12:19:02;;;;;;;7.07;4.00;;;;;;;;;;5048146;28;20108;-74
2021/01/29 12:21:34;;;;;;;8.00;4.90;;;;;;;;;;5065414;28;20033;-73
2021/01/29 12:24:10;;;;;;;7.03;4.40;;;;;;;;;;5056982;28;20020;-73
2021/01/29 12:26:44;;;;;;;9.20;5.00;;;;;;;;;;5058608;28;20029;-75
2021/01/29 12:29:19;;;;;;;7.13;4.65;;;;;;;;;;5066300;28;20027;-77
2021/01/29 12:32:03;;;;;;;7.70;4.50;;;;;;;;;;5040801;28;20119;-77
2021/01/29 12:34:29;;;;;;;8.75;4.32;;;;;;;;;;5061610;28;20833;-76
2021/01/29 12:36:58;;;;;;;8.30;4.57;;;;;;;;;;5066014;28;20043;-79
2021/01/29 12:39:31;;;;;;;7.35;4.68;;;;;;;;;;5056364;28;20033;-78
2021/01/29 12:42:03;;;;;;;6.65;4.35;;;;;;;;;;5067081;28;20063;-80
2021/01/29 12:44:42;;;;;;;8.73;4.78;;;;;;;;;;5063672;28;20047;-79
2021/01/29 12:47:11;;;;;;;6.55;4.30;;;;;;;;;;5055247;28;20534;-81
2021/01/29 12:49:57;;;;;;;7.10;4.40;;;;;;;;;;5038826;28;20067;-80
2021/01/29 12:52:26;;;;;;;7.78;4.90;;;;;;;;;;5059462;28;20021;-81
2021/01/29 12:55:11;;;;;;;7.60;4.47;;;;;;;;;;5060443;28;20107;-79
2021/01/29 12:57:37;;;;;;;7.18;4.80;;;;;;;;;;5055280;28;20555;-75
2021/01/29 13:00:17;;;;;;;8.38;4.47;;;;;;;;;;5065994;28;20025;-74
2021/01/29 13:02:45;;;;;;;8.55;5.53;;;;;;;;;;5065906;28;20139;-72
2021/01/29 13:05:18;;;;;;;7.13;4.57;;;;;;;;;;5056421;28;20102;-72
2021/01/29 13:08:02;;;;;;;8.40;4.72;;;;;;;;;;5068625;28;20025;-74
2021/01/29 13:10:37;;;;;;;10.70;5.07;;;;;;;;;;5062265;28;20154;-75
2021/01/29 13:13:06;;;;;;;7.47;4.68;;;;;;;;;;5071032;28;20061;-76
2021/01/29 13:15:38;;;;;;;8.15;5.55;;;;;;;;;;5056352;28;20025;-79
2021/01/29 13:18:06;;;;;;;7.22;4.57;;;;;;;;;;5064560;28;20025;-82
2021/01/29 13:20:37;;;;;;;9.18;4.97;;;;;;;;;;5064177;28;20229;-75
2021/01/29 13:23:21;;;;;;;8.75;4.97;;;;;;;;;;5057601;28;20021;-74
2021/01/29 13:25:55;;;;;;;11.82;4.82;;;;;;;;;;5041337;28;20082;-75
2021/01/29 13:28:21;;;;;;;7.53;5.10;;;;;;;;;;5052994;28;20052;-74
2021/01/29 13:30:47;;;;;;;9.45;5.28;;;;;;;;;;5059635;28;20053;-74
2021/01/29 13:33:21;;;;;;;7.88;5.53;;;;;;;;;;5067685;28;20027;-75
2021/01/29 13:35:49;;;;;;;16.92;5.50;;;;;;;;;;5057378;28;20017;-72
2021/01/29 13:38:29;;;;;;;17.17;6.03;;;;;;;;;;5063844;28;20021;-78
2021/01/29 13:41:06;;;;;;;15.10;5.65;;;;;;;;;;5067168;28;20032;-88
2021/01/29 13:43:33;;;;;;;8.38;5.85;;;;;;;;;;5053457;28;20066;-79
2021/01/29 13:46:04;;;;;;;11.13;5.95;;;;;;;;;;5048675;28;20116;-88
2021/01/29 13:48:30;;;;;;;11.55;6.53;;;;;;;;;;5049061;28;20165;-83
2021/01/29 13:50:56;;;;;;;13.18;6.78;;;;;;;;;;5057422;28;20230;-85
2021/01/29 13:53:28;;;;;;;14.23;6.75;;;;;;;;;;5069370;28;20582;-82
2021/01/29 13:55:58;;;;;;;11.18;5.80;;;;;;;;;;5058169;28;20075;-77
2021/01/29 13:58:36;;;;;;;11.93;6.35;;;;;;;;;;5054610;28;20121;-77
2021/01/29 14:01:07;;;;;;;13.02;5.78;;;;;;;;;;5048270;28;20041;-75
2021/01/29 14:03:35;;;;;;;12.43;6.53;;;;;;;;;;5067872;28;20488;-78
2021/01/29 14:06:02;;;;;;;11.48;6.82;;;;;;;;;;5051022;28;20028;-78
2021/01/29 14:08:29;;;;;;;11.27;6.30;;;;;;;;;;5050747;28;20021;-78
2021/01/29 14:10:58;;;;;;;14.13;7.03;;;;;;;;;;5051138;28;20021;-78
2021/01/29 14:13:41;;;;;;;13.18;6.05;;;;;;;;;;5051102;28;20029;-79
2021/01/29 14:16:16;;;;;;;11.30;6.63;;;;;;;;;;5050935;28;20492;-77
2021/01/29 14:18:42;;;;;;;16.55;6.80;;;;;;;;;;5051137;28;20036;-78
2021/01/29 14:21:41;;;;;;;14.32;7.18;;;;;;;;;;5052127;28;20045;-77
2021/01/29 14:24:16;;;;;;;11.98;7.07;;;;;;;;;;5039880;28;20126;-76
2021/01/29 14:26:50;;;;;;;10.35;5.63;;;;;;;;;;5052072;28;20021;-74
2021/01/29 14:29:29;;;;;;;12.00;6.30;;;;;;;;;;5050743;28;20098;-75
2021/01/29 14:32:20;;;;;;;16.52;6.50;;;;;;;;;;5050456;28;20029;-76
2021/01/29 14:34:55;;;;;;;9.40;6.32;;;;;;;;;;5047743;28;20024;-73
2021/01/29 14:37:34;;;;;;;13.88;6.20;;;;;;;;;;5051793;28;20033;-79
2021/01/29 14:40:06;;;;;;;11.73;6.95;;;;;;;;;;5066513;28;20044;-82
2021/01/29 14:42:51;;;;;;;16.30;7.47;;;;;;;;;;5058299;28;20073;-78
2021/01/29 14:45:20;;;;;;;13.23;6.97;;;;;;;;;;5057207;28;20039;-80
2021/01/29 14:47:53;;;;;;;19.30;7.03;;;;;;;;;;5050669;28;20555;-81
2021/01/29 14:50:28;;;;;;;11.98;6.65;;;;;;;;;;5067886;28;20031;-80
2021/01/29 14:52:57;;;;;;;10.93;7.38;;;;;;;;;;5048747;28;20020;-82
2021/01/29 14:55:38;;;;;;;13.30;6.28;;;;;;;;;;5061185;28;20056;-83
2021/01/29 14:58:05;;;;;;;13.60;7.65;;;;;;;;;;5055087;28;20025;-76
2021/01/29 15:00:38;;;;;;;10.98;6.32;;;;;;;;;;5066673;28;20388;-79
2021/01/29 15:03:10;;;;;;;17.02;7.63;;;;;;;;;;5056126;28;20020;-78
2021/01/29 15:05:47;;;;;;;15.68;7.05;;;;;;;;;;5064343;28;20032;-75
2021/01/29 15:08:25;;;;;;;11.20;6.80;;;;;;;;;;5054555;28;20028;-81
2021/01/29 15:10:56;;;;;;;12.50;7.25;;;;;;;;;;5040410;28;20027;-82
2021/01/29 15:13:36;;;;;;;13.63;7.53;;;;;;;;;;5061115;28;20021;-78
2021/01/29 15:16:02;;;;;;;10.63;6.18;;;;;;;;;;5064009;28;20032;-81